createdAt,value
2023-05-16T00:01:58.394Z,13.68
2023-05-16T00:05:00.174Z,13.68
2023-05-16T00:08:01.930Z,13.70
2023-05-16T00:11:05.183Z,13.62
2023-05-16T00:14:09.539Z,13.63
2023-05-16T00:17:12.440Z,13.67
2023-05-16T00:20:14.389Z,13.62
2023-05-16T00:23:17.164Z,13.57
2023-05-16T00:26:20.804Z,13.57
2023-05-16T00:29:24.413Z,13.51
2023-05-16T00:32:27.953Z,13.50
2023-05-16T00:35:32.528Z,13.45
2023-05-16T00:38:34.486Z,13.45
2023-05-16T00:41:38.076Z,13.39
2023-05-16T00:44:41.334Z,13.36
2023-05-16T00:47:43.900Z,13.32
2023-05-16T00:50:46.171Z,13.24
2023-05-16T00:53:48.516Z,13.20
2023-05-16T00:56:51.833Z,13.15
2023-05-16T00:59:56.816Z,13.10
2023-05-16T01:02:58.962Z,12.99
2023-05-16T01:06:00.891Z,12.97
2023-05-16T01:09:02.938Z,12.99
2023-05-16T01:12:26.677Z,12.95
2023-05-16T01:15:33.394Z,12.99
2023-05-16T01:18:43.658Z,12.95
2023-05-16T01:21:50.260Z,12.97
2023-05-16T01:25:06.003Z,12.94
2023-05-16T01:28:10.222Z,12.91
2023-05-16T01:31:12.147Z,12.83
2023-05-16T01:34:14.084Z,12.82
2023-05-16T01:37:20.907Z,12.90
2023-05-16T01:40:30.533Z,12.94
2023-05-16T01:43:38.427Z,12.90
2023-05-16T01:46:44.371Z,12.90
2023-05-16T01:49:51.268Z,12.89
2023-05-16T01:52:58.498Z,12.87
2023-05-16T01:56:09.226Z,12.85
2023-05-16T01:59:13.131Z,12.91
2023-05-16T02:02:18.056Z,12.88
2023-05-16T02:05:19.778Z,12.95
2023-05-16T02:08:22.142Z,12.93
2023-05-16T02:11:26.285Z,12.94
2023-05-16T02:14:29.655Z,13.00
2023-05-16T02:17:31.958Z,13.00
2023-05-16T02:20:53.965Z,13.04
2023-05-16T02:23:55.648Z,13.06
2023-05-16T02:26:57.367Z,13.04
2023-05-16T02:30:00.877Z,13.03
2023-05-16T02:33:03.220Z,13.09
2023-05-16T02:36:05.566Z,13.04
2023-05-16T02:39:09.114Z,12.97
2023-05-16T02:42:11.253Z,12.98
2023-05-16T02:45:15.352Z,12.90
2023-05-16T02:48:17.350Z,12.90
2023-05-16T02:51:21.028Z,12.82
2023-05-16T02:54:22.809Z,12.71
2023-05-16T02:57:24.882Z,12.71
2023-05-16T03:00:28.384Z,12.52
2023-05-16T03:03:30.467Z,12.38
2023-05-16T03:06:32.695Z,12.25
2023-05-16T03:09:34.932Z,12.25
2023-05-16T03:12:36.776Z,12.29
2023-05-16T03:15:39.914Z,12.27
2023-05-16T03:18:41.754Z,12.23
2023-05-16T03:21:43.975Z,12.24
2023-05-16T03:24:45.951Z,12.20
2023-05-16T03:27:48.312Z,12.13
2023-05-16T03:30:53.847Z,12.13
2023-05-16T03:33:55.775Z,12.11
2023-05-16T03:36:57.719Z,12.08
2023-05-16T03:39:59.546Z,12.03
2023-05-16T03:43:02.685Z,11.98
2023-05-16T03:46:06.016Z,12.08
2023-05-16T03:49:07.931Z,12.05
2023-05-16T03:52:09.901Z,11.98
2023-05-16T03:55:14.266Z,12.04
2023-05-16T03:58:16.742Z,12.09
2023-05-16T04:01:20.144Z,12.02
2023-05-16T04:04:21.917Z,11.92
2023-05-16T04:07:24.045Z,11.75
2023-05-16T04:10:26.004Z,11.73
2023-05-16T04:13:27.845Z,11.86
2023-05-16T04:16:31.156Z,11.81
2023-05-16T04:19:32.960Z,11.86
2023-05-16T04:22:35.126Z,11.87
2023-05-16T04:25:36.860Z,11.90
2023-05-16T04:28:38.741Z,11.99
2023-05-16T04:31:41.928Z,12.02
2023-05-16T04:34:46.739Z,12.00
2023-05-16T04:37:48.508Z,11.76
2023-05-16T04:40:51.324Z,11.76
2023-05-16T04:43:53.681Z,11.78
2023-05-16T04:46:57.193Z,11.99
2023-05-16T04:49:59.277Z,12.01
2023-05-16T04:53:02.583Z,11.94
2023-05-16T04:56:05.990Z,11.86
2023-05-16T04:59:07.779Z,11.80
2023-05-16T05:02:11.897Z,11.72
2023-05-16T05:05:13.882Z,11.81
2023-05-16T05:08:16.471Z,11.89
2023-05-16T05:11:18.771Z,12.03
2023-05-16T05:14:20.649Z,12.09
2023-05-16T05:17:24.338Z,11.86
2023-05-16T05:20:26.891Z,11.87
2023-05-16T05:23:28.705Z,11.93
2023-05-16T05:26:30.807Z,12.16
2023-05-16T05:29:32.523Z,12.28
2023-05-16T05:32:36.985Z,12.18
2023-05-16T05:35:38.910Z,12.27
2023-05-16T05:38:40.748Z,12.20
2023-05-16T05:41:42.718Z,12.34
2023-05-16T05:44:44.399Z,12.44
2023-05-16T05:47:47.609Z,12.55
2023-05-16T05:50:49.564Z,12.60
2023-05-16T05:53:51.668Z,12.45
2023-05-16T05:56:53.396Z,12.36
2023-05-16T05:59:55.411Z,12.47
2023-05-16T06:02:59.030Z,12.44
2023-05-16T06:06:01.299Z,12.35
2023-05-16T06:09:04.002Z,12.50
2023-05-16T06:12:06.553Z,12.43
2023-05-16T06:15:10.111Z,12.40
2023-05-16T06:18:13.288Z,12.46
2023-05-16T06:21:15.388Z,12.43
2023-05-16T06:24:17.203Z,12.47
2023-05-16T06:27:19.167Z,12.38
2023-05-16T06:30:21.214Z,12.47
2023-05-16T06:33:24.234Z,12.58
2023-05-16T06:36:25.988Z,12.52
2023-05-16T06:39:27.777Z,12.50
2023-05-16T06:42:29.655Z,12.40
2023-05-16T06:45:31.501Z,12.31
2023-05-16T06:48:34.894Z,12.33
2023-05-16T06:51:36.698Z,12.40
2023-05-16T06:54:38.473Z,12.36
2023-05-16T06:57:40.790Z,12.39
2023-05-16T07:00:44.029Z,12.48
2023-05-16T07:03:47.359Z,12.28
2023-05-16T07:06:49.125Z,11.93
2023-05-16T07:09:50.906Z,11.86
2023-05-16T07:12:52.736Z,12.07
2023-05-16T07:15:54.503Z,12.23
2023-05-16T07:18:58.006Z,12.23
2023-05-16T07:21:59.884Z,12.01
2023-05-16T07:25:01.766Z,11.65
2023-05-16T07:28:03.676Z,11.32
2023-05-16T07:31:06.967Z,11.24
2023-05-16T07:34:11.029Z,11.10
2023-05-16T07:37:13.874Z,10.65
2023-05-16T07:40:15.724Z,10.74
2023-05-16T07:43:17.447Z,10.67
2023-05-16T07:46:19.460Z,10.70
2023-05-16T07:49:22.604Z,10.28
2023-05-16T07:52:24.380Z,10.31
2023-05-16T07:55:26.780Z,10.12
2023-05-16T07:58:29.023Z,10.33
2023-05-16T08:01:31.061Z,10.28
2023-05-16T08:04:34.101Z,10.77
2023-05-16T08:07:36.091Z,10.98
2023-05-16T08:10:37.943Z,11.06
2023-05-16T08:13:39.791Z,11.19
2023-05-16T08:16:41.623Z,11.28
2023-05-16T08:19:44.761Z,11.88
2023-05-16T08:22:46.607Z,12.09
2023-05-16T08:25:48.501Z,12.48
2023-05-16T08:28:50.237Z,12.64
2023-05-16T08:31:52.205Z,13.34
2023-05-16T08:34:55.614Z,13.05
2023-05-16T08:37:57.661Z,12.91
2023-05-16T08:40:59.486Z,12.91
2023-05-16T08:44:01.791Z,13.11
2023-05-16T08:47:13.980Z,12.96
2023-05-16T08:50:17.416Z,13.22
2023-05-16T08:53:26.670Z,13.00
2023-05-16T08:56:29.836Z,13.12
2023-05-16T08:59:32.570Z,12.75
2023-05-16T09:02:34.785Z,12.43
2023-05-16T09:05:38.521Z,12.22
2023-05-16T09:08:40.872Z,12.04
2023-05-16T09:11:42.905Z,11.49
2023-05-16T09:14:45.339Z,11.69
2023-05-16T09:17:48.123Z,11.79
2023-05-16T09:20:53.606Z,11.76
2023-05-16T09:24:03.113Z,11.77
2023-05-16T09:27:08.320Z,11.90
2023-05-16T09:30:10.782Z,11.98
2023-05-16T09:33:12.963Z,12.04
2023-05-16T09:36:16.602Z,12.12
2023-05-16T09:39:18.371Z,12.27
2023-05-16T09:42:22.174Z,12.82
2023-05-16T09:45:27.076Z,13.00
2023-05-16T09:48:32.440Z,12.82
2023-05-16T09:51:36.421Z,12.60
2023-05-16T09:54:38.247Z,12.49
2023-05-16T09:57:40.583Z,12.59
2023-05-16T10:00:42.619Z,13.21
2023-05-16T10:03:44.642Z,13.22
2023-05-16T10:06:51.306Z,12.42
2023-05-16T10:09:54.658Z,12.52
2023-05-16T10:12:58.549Z,12.62
2023-05-16T10:16:06.153Z,12.80
2023-05-16T10:19:08.735Z,13.12
2023-05-16T10:22:13.587Z,12.76
2023-05-16T10:25:19.335Z,12.49
2023-05-16T10:28:22.037Z,12.62
2023-05-16T10:31:24.856Z,12.70
2023-05-16T10:34:26.779Z,12.68
2023-05-16T10:37:31.630Z,12.70
2023-05-16T10:40:34.398Z,12.81
2023-05-16T10:43:39.522Z,12.47
2023-05-16T10:46:44.396Z,12.40
2023-05-16T10:49:47.023Z,12.44
2023-05-16T10:52:52.910Z,12.39
2023-05-16T10:56:09.016Z,12.30
2023-05-16T10:59:24.098Z,12.36
2023-05-16T11:02:28.863Z,12.09
2023-05-16T11:05:31.436Z,12.56
2023-05-16T11:08:36.516Z,12.50
2023-05-16T11:11:48.250Z,12.57
2023-05-16T11:14:51.976Z,12.36
2023-05-16T11:18:07.878Z,12.23
2023-05-16T11:21:09.831Z,12.31
2023-05-16T11:24:31.652Z,12.80
2023-05-16T11:27:35.537Z,12.92
2023-05-16T11:30:41.543Z,13.66
2023-05-16T11:33:45.028Z,13.72
2023-05-16T11:36:48.142Z,13.49
2023-05-16T11:39:51.937Z,13.56
2023-05-16T11:42:54.323Z,13.46
2023-05-16T11:45:57.129Z,13.48
2023-05-16T11:48:59.223Z,13.82
2023-05-16T11:52:01.166Z,13.77
2023-05-16T11:55:06.935Z,13.45
2023-05-16T11:58:09.534Z,13.72
2023-05-16T12:01:11.583Z,13.83
2023-05-16T12:04:15.404Z,13.17
2023-05-16T12:10:42.951Z,13.24
2023-05-16T12:13:45.436Z,13.00
2023-05-16T12:16:49.282Z,13.35
2023-05-16T12:19:51.242Z,13.00
2023-05-16T12:22:53.385Z,12.69
2023-05-16T12:25:57.820Z,12.67
2023-05-16T12:29:03.373Z,12.75
2023-05-16T12:32:07.997Z,12.68
2023-05-16T12:35:13.172Z,12.91
2023-05-16T12:38:17.245Z,13.22
2023-05-16T12:41:21.754Z,13.46
2023-05-16T12:44:25.101Z,13.73
2023-05-16T12:47:35.471Z,14.38
2023-05-16T12:50:39.510Z,13.81
2023-05-16T12:53:43.047Z,13.75
2023-05-16T12:56:46.813Z,13.67
2023-05-16T12:59:48.811Z,13.95
2023-05-16T13:02:50.901Z,13.82
2023-05-16T13:05:53.080Z,14.15
2023-05-16T13:08:55.684Z,13.96
2023-05-16T13:11:59.855Z,14.28
2023-05-16T13:15:02.098Z,14.27
2023-05-16T13:18:04.444Z,14.51
2023-05-16T13:21:06.582Z,15.06
2023-05-16T13:24:08.689Z,15.40
2023-05-16T13:27:11.773Z,16.12
2023-05-16T13:30:13.837Z,15.57
2023-05-16T13:33:18.399Z,15.51
2023-05-16T13:36:20.439Z,15.36
2023-05-16T13:39:22.654Z,15.36
2023-05-16T13:42:26.104Z,15.45
2023-05-16T13:45:28.502Z,15.82
2023-05-16T13:48:30.402Z,16.41
2023-05-16T13:51:32.410Z,15.98
2023-05-16T13:54:34.254Z,15.91
2023-05-16T13:57:37.434Z,17.16
2023-05-16T14:00:44.998Z,17.16
2023-05-16T14:03:48.049Z,17.04
2023-05-16T14:06:50.265Z,17.54
2023-05-16T14:09:52.154Z,16.84
2023-05-16T14:12:55.795Z,16.08
2023-05-16T14:15:57.846Z,15.61
2023-05-16T14:18:59.927Z,15.55
2023-05-16T14:22:01.796Z,15.56
2023-05-16T14:25:04.697Z,16.48
2023-05-16T14:28:07.786Z,16.80
2023-05-16T14:31:09.754Z,16.49
2023-05-16T14:34:11.488Z,17.80
2023-05-16T14:37:14.308Z,18.03
2023-05-16T14:40:16.107Z,18.36
2023-05-16T14:43:19.484Z,19.04
2023-05-16T14:46:21.491Z,19.69
2023-05-16T14:49:23.505Z,19.14
2023-05-16T14:52:25.352Z,18.69
2023-05-16T14:55:27.418Z,17.15
2023-05-16T14:58:31.257Z,16.85
2023-05-16T15:01:33.053Z,17.64
2023-05-16T15:04:34.884Z,18.31
2023-05-16T15:07:36.580Z,18.20
2023-05-16T15:10:38.317Z,17.98
2023-05-16T15:13:41.427Z,18.30
2023-05-16T15:16:43.889Z,19.62
2023-05-16T15:19:47.798Z,19.41
2023-05-16T15:22:49.582Z,21.30
2023-05-16T15:25:52.308Z,20.21
2023-05-16T15:28:55.702Z,19.17
2023-05-16T15:31:57.785Z,20.72
2023-05-16T15:34:59.774Z,20.30
2023-05-16T15:38:01.590Z,19.38
2023-05-16T15:41:18.619Z,20.59
2023-05-16T15:44:29.977Z,18.32
2023-05-16T15:47:32.132Z,17.55
2023-05-16T15:50:33.988Z,18.26
2023-05-16T15:53:55.710Z,19.15
2023-05-16T15:56:58.118Z,18.25
2023-05-16T16:00:01.493Z,20.01
2023-05-16T16:03:03.504Z,19.44
2023-05-16T16:06:05.675Z,19.40
2023-05-16T16:09:08.042Z,19.77
2023-05-16T16:12:10.038Z,19.97
2023-05-16T16:15:13.353Z,19.95
2023-05-16T16:18:15.475Z,19.76
2023-05-16T16:21:17.758Z,19.27
2023-05-16T16:24:20.295Z,17.57
2023-05-16T16:27:22.214Z,16.26
2023-05-16T16:30:25.737Z,16.32
2023-05-16T16:33:27.510Z,16.17
2023-05-16T16:36:29.428Z,18.43
2023-05-16T16:39:33.231Z,18.54
2023-05-16T16:42:38.538Z,18.88
2023-05-16T16:45:41.922Z,19.26
2023-05-16T16:48:44.236Z,19.51
2023-05-16T16:51:47.331Z,20.56
2023-05-16T16:54:49.180Z,19.67
2023-05-16T16:57:51.129Z,18.79
2023-05-16T17:00:54.560Z,18.13
2023-05-16T17:03:56.331Z,18.33
2023-05-16T17:06:58.256Z,17.27
2023-05-16T17:10:01.343Z,16.44
2023-05-16T17:13:07.201Z,15.83
2023-05-16T17:16:10.858Z,15.62
2023-05-16T17:19:12.924Z,15.41
2023-05-16T17:22:14.877Z,16.14
2023-05-16T17:25:16.676Z,17.00
2023-05-16T17:28:19.035Z,17.38
2023-05-16T17:31:22.535Z,16.64
2023-05-16T17:34:24.559Z,16.60
2023-05-16T17:37:26.766Z,16.58
2023-05-16T17:40:28.521Z,16.28
2023-05-16T17:43:31.051Z,16.29
2023-05-16T17:46:34.294Z,16.18
2023-05-16T17:49:36.204Z,15.62
2023-05-16T17:52:38.562Z,15.33
2023-05-16T17:55:40.511Z,15.03
2023-05-16T17:58:42.599Z,14.91
2023-05-16T18:01:46.377Z,14.90
2023-05-16T18:04:48.760Z,14.87
2023-05-16T18:07:51.884Z,14.72
2023-05-16T18:10:53.629Z,14.50
2023-05-16T18:13:55.502Z,14.42
2023-05-16T18:16:59.050Z,14.22
2023-05-16T18:20:09.073Z,14.22
2023-05-16T18:23:11.976Z,14.12
2023-05-16T18:26:14.173Z,14.11
2023-05-16T18:29:16.206Z,14.05
2023-05-16T18:32:20.570Z,14.17
2023-05-16T18:35:23.813Z,14.14
2023-05-16T18:38:32.763Z,14.23
2023-05-16T18:41:35.831Z,14.08
2023-05-16T18:44:37.761Z,14.07
2023-05-16T18:47:41.617Z,14.03
2023-05-16T18:50:46.043Z,14.00
2023-05-16T18:53:47.833Z,13.95
2023-05-16T18:56:49.692Z,13.91
2023-05-16T18:59:53.659Z,13.83
2023-05-16T19:02:56.991Z,13.82
2023-05-16T19:05:59.286Z,13.83
2023-05-16T19:09:01.825Z,13.77
2023-05-16T19:12:04.069Z,13.69
2023-05-16T19:15:06.988Z,13.54
2023-05-16T19:18:11.038Z,13.31
2023-05-16T19:21:13.662Z,13.04
2023-05-16T19:24:16.274Z,12.69
2023-05-16T19:27:18.006Z,12.46
2023-05-16T19:30:19.990Z,12.04
2023-05-16T19:33:23.155Z,11.80
2023-05-16T19:36:24.971Z,11.71
2023-05-16T19:39:26.846Z,11.63
2023-05-16T19:42:28.685Z,11.52
2023-05-16T19:45:30.662Z,11.51
2023-05-16T19:48:34.211Z,11.42
2023-05-16T19:51:42.028Z,11.38
2023-05-16T19:54:44.276Z,11.28
2023-05-16T19:57:46.749Z,11.21
2023-05-16T20:00:48.673Z,11.15
2023-05-16T20:03:51.833Z,11.09
2023-05-16T20:06:53.752Z,10.96
2023-05-16T20:09:55.799Z,11.13
2023-05-16T20:12:57.599Z,11.15
2023-05-16T20:15:59.392Z,11.03
2023-05-16T20:19:04.136Z,10.97
2023-05-16T20:22:06.222Z,10.88
2023-05-16T20:25:09.645Z,10.86
2023-05-16T20:28:11.346Z,10.67
2023-05-16T20:31:13.085Z,10.52
2023-05-16T20:34:16.259Z,10.73
2023-05-16T20:37:17.991Z,10.61
2023-05-16T20:40:20.006Z,10.44
2023-05-16T20:43:21.835Z,10.44
2023-05-16T20:46:23.655Z,10.28
2023-05-16T20:49:26.901Z,10.07
2023-05-16T20:52:28.671Z,9.83
2023-05-16T20:55:31.352Z,9.84
2023-05-16T20:58:33.129Z,9.72
2023-05-16T21:01:35.017Z,9.51
2023-05-16T21:04:38.592Z,9.60
2023-05-16T21:07:41.086Z,9.55
2023-05-16T21:10:42.816Z,9.39
2023-05-16T21:13:44.605Z,9.39
2023-05-16T21:16:49.262Z,9.52
2023-05-16T21:19:52.538Z,9.32
2023-05-16T21:22:54.490Z,9.85
2023-05-16T21:25:56.359Z,9.65
2023-05-16T21:28:58.257Z,9.49
2023-05-16T21:32:00.138Z,9.31
2023-05-16T21:35:04.878Z,9.26
2023-05-16T21:38:06.696Z,9.06
2023-05-16T21:41:08.433Z,8.99
2023-05-16T21:44:13.381Z,8.93
2023-05-16T21:47:14.963Z,8.86
2023-05-16T21:50:18.351Z,8.90
2023-05-16T21:53:21.320Z,8.84
2023-05-16T21:56:23.209Z,8.90
2023-05-16T21:59:25.119Z,8.90
2023-05-16T22:02:26.832Z,9.02
2023-05-16T22:05:30.029Z,8.95
2023-05-16T22:08:32.341Z,8.85
2023-05-16T22:11:34.407Z,8.75
2023-05-16T22:14:36.178Z,8.69
2023-05-16T22:17:38.162Z,8.71
2023-05-16T22:20:41.327Z,8.60
2023-05-16T22:23:43.010Z,8.56
2023-05-16T22:26:44.867Z,8.69
2023-05-16T22:29:46.753Z,8.46
2023-05-16T22:32:48.915Z,8.26
2023-05-16T22:35:52.151Z,8.24
2023-05-16T22:38:54.048Z,8.16
2023-05-16T22:41:55.869Z,8.13
2023-05-16T22:44:57.807Z,7.99
2023-05-16T22:47:59.729Z,7.99
2023-05-16T22:51:03.359Z,8.03
2023-05-16T22:54:06.289Z,7.89
2023-05-16T22:57:08.260Z,7.84
2023-05-16T23:00:10.798Z,7.91
2023-05-16T23:03:12.792Z,8.12
2023-05-16T23:06:16.736Z,8.22
2023-05-16T23:09:18.590Z,8.49
2023-05-16T23:12:21.432Z,8.44
2023-05-16T23:15:23.519Z,8.49
2023-05-16T23:18:25.428Z,8.67
2023-05-16T23:21:28.574Z,8.37
2023-05-16T23:24:30.245Z,8.13
2023-05-16T23:27:32.045Z,8.04
2023-05-16T23:30:34.221Z,7.98
2023-05-16T23:33:36.078Z,7.71
2023-05-16T23:36:39.305Z,7.55
2023-05-16T23:39:41.078Z,7.53
2023-05-16T23:42:43.046Z,7.36
2023-05-16T23:45:44.991Z,7.29
2023-05-16T23:48:47.023Z,7.22
2023-05-16T23:51:56.673Z,7.23
2023-05-16T23:54:59.700Z,7.12
2023-05-16T23:58:01.634Z,7.02
